createdAt,value
2023-05-03T00:00:08.814Z,2.05
2023-05-03T00:02:57.662Z,2.15
2023-05-03T00:05:26.840Z,1.83
2023-05-03T00:07:54.847Z,2.80
2023-05-03T00:10:23.270Z,2.72
2023-05-03T00:12:51.288Z,2.92
2023-05-03T00:15:19.509Z,2.70
2023-05-03T00:17:47.528Z,3.10
2023-05-03T00:20:15.790Z,3.15
2023-05-03T00:22:43.919Z,2.97
2023-05-03T00:25:12.169Z,2.83
2023-05-03T00:27:40.020Z,3.28
2023-05-03T00:30:09.820Z,3.55
2023-05-03T00:32:37.754Z,2.95
2023-05-03T00:35:06.889Z,3.88
2023-05-03T00:37:34.889Z,3.47
2023-05-03T00:40:04.870Z,3.47
2023-05-03T00:42:36.954Z,3.40
2023-05-03T00:45:06.429Z,3.50
2023-05-03T00:47:35.016Z,3.30
2023-05-03T00:50:05.815Z,3.60
2023-05-03T00:52:34.945Z,3.72
2023-05-03T00:55:03.929Z,3.58
2023-05-03T00:57:31.890Z,3.30
2023-05-03T01:00:01.012Z,3.65
2023-05-03T01:02:29.451Z,3.58
2023-05-03T01:04:57.910Z,4.20
2023-05-03T01:07:48.571Z,4.35
2023-05-03T01:10:22.113Z,4.63
2023-05-03T01:13:00.138Z,3.95
2023-05-03T01:16:04.046Z,4.88
2023-05-03T01:18:49.222Z,4.38
2023-05-03T01:21:18.989Z,4.40
2023-05-03T01:24:04.460Z,4.30
2023-05-03T01:26:33.739Z,5.03
2023-05-03T01:29:01.987Z,4.78
2023-05-03T01:31:37.550Z,4.75
2023-05-03T01:34:18.846Z,5.03
2023-05-03T01:36:49.563Z,4.90
2023-05-03T01:39:24.750Z,4.97
2023-05-03T01:41:53.772Z,5.70
2023-05-03T01:44:24.645Z,5.65
2023-05-03T01:46:53.010Z,6.10
2023-05-03T01:49:21.035Z,5.80
2023-05-03T01:51:49.998Z,6.25
2023-05-03T01:54:18.850Z,5.68
2023-05-03T01:56:47.199Z,6.20
2023-05-03T01:59:16.422Z,6.03
2023-05-03T02:01:46.185Z,5.50
2023-05-03T02:04:14.190Z,7.45
2023-05-03T02:06:42.592Z,6.80
2023-05-03T02:09:10.801Z,6.22
2023-05-03T02:11:39.074Z,6.22
2023-05-03T02:14:08.452Z,7.20
2023-05-03T02:16:37.149Z,5.82
2023-05-03T02:19:05.936Z,6.50
2023-05-03T02:21:36.642Z,6.57
2023-05-03T02:24:04.880Z,6.38
2023-05-03T02:26:33.300Z,6.47
2023-05-03T02:29:01.784Z,7.05
2023-05-03T02:31:32.777Z,6.78
2023-05-03T02:34:01.124Z,6.45
2023-05-03T02:36:29.763Z,6.18
2023-05-03T02:38:58.518Z,6.53
2023-05-03T02:41:27.395Z,6.72
2023-05-03T02:43:55.494Z,6.80
2023-05-03T02:46:26.928Z,6.47
2023-05-03T02:48:55.141Z,6.47
2023-05-03T02:51:24.199Z,6.95
2023-05-03T02:53:52.140Z,6.05
2023-05-03T02:56:21.060Z,6.40
2023-05-03T02:58:48.986Z,6.93
2023-05-03T03:01:17.639Z,7.25
2023-05-03T03:03:45.895Z,6.30
2023-05-03T03:06:14.757Z,6.70
2023-05-03T03:08:44.569Z,6.45
2023-05-03T03:11:13.349Z,6.82
2023-05-03T03:13:41.557Z,6.82
2023-05-03T03:16:10.561Z,6.32
2023-05-03T03:18:38.540Z,6.22
2023-05-03T03:21:07.132Z,5.32
2023-05-03T03:23:37.212Z,5.93
2023-05-03T03:26:05.588Z,6.28
2023-05-03T03:28:33.690Z,6.03
2023-05-03T03:31:06.932Z,5.55
2023-05-03T03:33:35.039Z,5.45
2023-05-03T03:36:10.678Z,5.60
2023-05-03T03:38:42.201Z,5.32
2023-05-03T03:41:12.373Z,5.93
2023-05-03T03:43:40.363Z,5.57
2023-05-03T03:46:13.710Z,5.40
2023-05-03T03:48:43.101Z,6.07
2023-05-03T03:51:11.728Z,5.97
2023-05-03T03:53:45.766Z,5.85
2023-05-03T03:56:15.110Z,5.63
2023-05-03T03:58:43.808Z,5.60
2023-05-03T04:01:13.991Z,5.57
2023-05-03T04:03:41.934Z,5.97
2023-05-03T04:06:11.060Z,6.72
2023-05-03T04:08:39.028Z,6.50
2023-05-03T04:11:12.690Z,6.35
2023-05-03T04:13:46.603Z,6.18
2023-05-03T04:16:15.574Z,7.00
2023-05-03T04:18:43.971Z,6.47
2023-05-03T04:21:12.556Z,6.13
2023-05-03T04:23:40.903Z,6.68
2023-05-03T04:26:20.195Z,6.55
2023-05-03T04:28:56.982Z,5.82
2023-05-03T04:31:25.669Z,7.07
2023-05-03T04:33:55.690Z,6.70
2023-05-03T04:36:26.081Z,7.00
2023-05-03T04:38:56.479Z,6.40
2023-05-03T04:41:25.867Z,5.95
2023-05-03T04:43:55.615Z,6.25
2023-05-03T04:46:24.443Z,6.80
2023-05-03T04:48:52.729Z,6.88
2023-05-03T04:51:21.232Z,7.22
2023-05-03T04:53:51.139Z,6.60
2023-05-03T04:56:26.527Z,6.07
2023-05-03T04:59:02.050Z,8.63
2023-05-03T05:01:30.306Z,7.50
2023-05-03T05:04:02.357Z,6.38
2023-05-03T05:06:37.489Z,6.75
2023-05-03T05:09:22.191Z,6.63
2023-05-03T05:11:53.553Z,7.18
2023-05-03T05:14:23.552Z,7.15
2023-05-03T05:16:51.995Z,7.25
2023-05-03T05:19:20.056Z,6.93
2023-05-03T05:21:48.479Z,7.05
2023-05-03T05:24:17.427Z,7.57
2023-05-03T05:26:47.290Z,7.05
2023-05-03T05:29:16.722Z,6.97
2023-05-03T05:31:45.364Z,7.07
2023-05-03T05:34:13.735Z,6.97
2023-05-03T05:36:42.686Z,6.72
2023-05-03T05:39:10.716Z,7.22
2023-05-03T05:41:39.672Z,8.07
2023-05-03T05:44:08.156Z,8.57
2023-05-03T05:46:36.402Z,6.97
2023-05-03T05:49:05.156Z,6.65
2023-05-03T05:51:33.326Z,7.43
2023-05-03T05:54:01.237Z,7.57
2023-05-03T05:56:29.735Z,7.03
2023-05-03T05:58:57.847Z,7.63
2023-05-03T06:01:27.460Z,7.10
2023-05-03T06:03:56.732Z,7.13
2023-05-03T06:06:26.427Z,7.57
2023-05-03T06:08:55.454Z,7.15
2023-05-03T06:11:23.743Z,8.07
2023-05-03T06:13:51.961Z,8.98
2023-05-03T06:16:22.300Z,7.47
2023-05-03T06:18:51.307Z,7.90
2023-05-03T06:21:19.539Z,8.07
2023-05-03T06:23:47.462Z,7.75
2023-05-03T06:26:17.724Z,8.00
2023-05-03T06:28:47.471Z,7.70
2023-05-03T06:31:16.838Z,7.97
2023-05-03T06:33:46.270Z,7.85
2023-05-03T06:36:14.785Z,8.65
2023-05-03T06:38:44.199Z,8.38
2023-05-03T06:41:12.437Z,8.30
2023-05-03T06:43:40.384Z,9.30
2023-05-03T06:46:09.016Z,7.65
2023-05-03T06:48:36.961Z,9.60
2023-05-03T06:51:06.205Z,8.75
2023-05-03T06:53:34.178Z,8.77
2023-05-03T06:56:03.881Z,7.78
2023-05-03T06:58:32.032Z,7.90
2023-05-03T07:01:00.240Z,8.75
2023-05-03T07:03:28.248Z,8.32
2023-05-03T07:05:56.659Z,8.00
2023-05-03T07:08:24.628Z,8.77
2023-05-03T07:10:52.851Z,8.68
2023-05-03T07:13:20.828Z,9.57
2023-05-03T07:15:49.328Z,9.95
2023-05-03T07:18:17.506Z,9.20
2023-05-03T07:20:46.839Z,9.15
2023-05-03T07:23:15.861Z,9.05
2023-05-03T07:25:46.055Z,9.68
2023-05-03T07:28:14.110Z,9.95
2023-05-03T07:30:42.352Z,9.02
2023-05-03T07:33:10.272Z,9.90
2023-05-03T07:35:38.656Z,10.95
2023-05-03T07:38:06.546Z,10.13
2023-05-03T07:40:34.816Z,10.55
2023-05-03T07:43:03.316Z,10.80
2023-05-03T07:45:31.735Z,11.80
2023-05-03T07:47:59.617Z,10.52
2023-05-03T07:50:27.978Z,11.02
2023-05-03T07:52:56.712Z,10.82
2023-05-03T07:55:28.541Z,10.43
2023-05-03T07:57:59.606Z,10.95
2023-05-03T08:00:28.414Z,10.88
2023-05-03T08:02:56.686Z,10.93
2023-05-03T08:05:26.256Z,10.52
2023-05-03T08:07:54.396Z,12.02
2023-05-03T08:10:22.805Z,11.10
2023-05-03T08:12:50.998Z,11.18
2023-05-03T08:15:19.497Z,10.77
2023-05-03T08:17:47.366Z,12.02
2023-05-03T08:20:17.116Z,10.82
2023-05-03T08:22:46.635Z,11.45
2023-05-03T08:25:17.871Z,12.40
2023-05-03T08:27:45.919Z,10.48
2023-05-03T08:30:14.378Z,10.95
2023-05-03T08:32:42.321Z,9.68
2023-05-03T08:35:11.143Z,9.40
2023-05-03T08:37:42.909Z,8.73
2023-05-03T08:40:15.800Z,6.32
2023-05-03T08:42:46.262Z,5.32
2023-05-03T08:45:16.553Z,4.88
2023-05-03T08:47:45.571Z,5.75
2023-05-03T08:50:16.120Z,6.68
2023-05-03T08:52:44.482Z,5.63
2023-05-03T08:55:13.140Z,3.65
2023-05-03T08:57:41.496Z,3.42
2023-05-03T09:00:13.440Z,3.10
2023-05-03T09:02:41.677Z,2.65
2023-05-03T09:05:15.998Z,2.08
2023-05-03T09:08:05.262Z,1.88
2023-05-03T09:10:38.754Z,2.08
2023-05-03T09:13:08.044Z,1.10
2023-05-03T09:15:36.424Z,0.93
2023-05-03T09:18:13.967Z,1.25
2023-05-03T09:20:43.104Z,1.30
2023-05-03T09:23:11.044Z,1.30
2023-05-03T09:25:46.288Z,2.08
2023-05-03T09:28:15.792Z,1.27
2023-05-03T09:30:45.253Z,2.55
2023-05-03T09:33:23.835Z,3.40
2023-05-03T09:36:01.250Z,3.05
2023-05-03T09:38:35.018Z,4.53
2023-05-03T09:41:06.451Z,3.47
2023-05-03T09:43:36.226Z,3.25
2023-05-03T09:46:13.053Z,2.67
2023-05-03T09:48:41.424Z,2.72
2023-05-03T09:51:11.626Z,3.13
2023-05-03T09:53:40.668Z,3.22
2023-05-03T09:56:14.180Z,3.10
2023-05-03T09:58:44.020Z,2.65
2023-05-03T10:01:15.123Z,2.55
2023-05-03T10:03:52.124Z,2.80
2023-05-03T10:06:32.052Z,2.80
2023-05-03T10:09:14.736Z,3.00
2023-05-03T10:11:52.123Z,2.80
2023-05-03T10:14:21.812Z,2.55
2023-05-03T10:16:53.951Z,2.08
2023-05-03T10:19:28.807Z,1.60
2023-05-03T10:22:09.166Z,1.33
2023-05-03T10:24:38.877Z,1.92
2023-05-03T10:27:08.806Z,1.40
2023-05-03T10:29:46.594Z,0.82
2023-05-03T10:32:33.838Z,0.70
2023-05-03T10:35:13.296Z,0.93
2023-05-03T10:37:43.256Z,0.60
2023-05-03T10:40:16.031Z,1.00
2023-05-03T10:42:56.632Z,0.65
2023-05-03T10:45:29.171Z,0.50
2023-05-03T10:48:12.752Z,0.75
2023-05-03T10:50:40.795Z,0.90
2023-05-03T10:53:29.545Z,0.93
2023-05-03T10:56:06.825Z,1.33
2023-05-03T10:58:44.047Z,2.58
2023-05-03T11:01:14.473Z,3.25
2023-05-03T11:04:13.825Z,3.00
2023-05-03T11:06:42.070Z,3.60
2023-05-03T11:09:12.671Z,2.58
2023-05-03T11:11:42.217Z,2.90
2023-05-03T11:14:14.040Z,2.60
2023-05-03T11:16:48.295Z,2.50
2023-05-03T11:19:17.252Z,2.60
2023-05-03T11:21:46.392Z,3.03
2023-05-03T11:24:15.747Z,1.33
2023-05-03T11:26:43.629Z,1.05
2023-05-03T11:29:13.290Z,1.67
2023-05-03T11:31:43.452Z,1.73
2023-05-03T11:34:13.443Z,1.98
2023-05-03T11:36:42.516Z,2.00
2023-05-03T11:39:14.686Z,1.50
2023-05-03T11:41:42.695Z,1.10
2023-05-03T11:44:16.861Z,0.90
2023-05-03T11:46:49.580Z,1.27
2023-05-03T11:49:19.635Z,0.85
2023-05-03T11:51:51.606Z,0.40
2023-05-03T11:54:26.001Z,0.85
2023-05-03T11:56:58.199Z,0.77
2023-05-03T11:59:38.422Z,0.57
2023-05-03T12:02:12.137Z,1.00
2023-05-03T12:04:43.742Z,0.60
2023-05-03T12:07:15.206Z,0.55
2023-05-03T12:09:53.215Z,0.57
2023-05-03T12:12:32.118Z,1.10
2023-05-03T12:15:03.853Z,1.25
2023-05-03T12:17:44.443Z,1.27
2023-05-03T12:22:58.543Z,0.60
2023-05-03T12:25:32.957Z,0.90
2023-05-03T12:30:36.065Z,0.80
2023-05-03T12:33:05.173Z,1.05
2023-05-03T12:35:34.628Z,1.15
2023-05-03T12:38:04.756Z,1.05
2023-05-03T12:40:35.133Z,1.20
2023-05-03T12:43:03.893Z,1.48
2023-05-03T12:45:34.462Z,1.60
2023-05-03T12:48:03.406Z,1.00
2023-05-03T12:50:36.835Z,0.90
2023-05-03T12:53:09.578Z,1.02
2023-05-03T12:55:43.257Z,0.77
2023-05-03T13:00:53.244Z,1.23
2023-05-03T13:03:34.415Z,1.00
2023-05-03T13:06:13.261Z,1.60
2023-05-03T13:08:49.723Z,1.45
2023-05-03T13:11:19.812Z,0.82
2023-05-03T13:13:48.108Z,1.20
2023-05-03T13:16:16.413Z,1.17
2023-05-03T13:18:45.620Z,1.15
2023-05-03T13:21:13.998Z,1.55
2023-05-03T13:23:41.999Z,1.23
2023-05-03T13:26:10.277Z,1.40
2023-05-03T13:28:38.235Z,1.60
2023-05-03T13:31:06.663Z,1.10
2023-05-03T13:33:38.201Z,1.15
2023-05-03T13:36:07.095Z,1.33
2023-05-03T13:38:35.676Z,0.95
2023-05-03T13:41:09.916Z,1.13
2023-05-03T13:43:37.756Z,1.25
2023-05-03T13:46:05.938Z,1.10
2023-05-03T13:48:34.307Z,1.00
2023-05-03T13:51:10.306Z,1.00
2023-05-03T13:53:38.750Z,1.08
2023-05-03T13:56:07.854Z,0.98
2023-05-03T13:58:36.439Z,1.02
2023-05-03T14:01:04.699Z,1.10
2023-05-03T14:03:34.231Z,0.90
2023-05-03T14:06:02.981Z,1.30
2023-05-03T14:08:31.049Z,1.25
2023-05-03T14:10:59.583Z,1.02
2023-05-03T14:13:31.301Z,0.90
2023-05-03T14:16:06.456Z,1.00
2023-05-03T14:18:34.434Z,0.80
2023-05-03T14:21:02.813Z,1.00
2023-05-03T14:23:30.941Z,0.80
2023-05-03T14:25:59.245Z,0.70
2023-05-03T14:28:27.196Z,1.02
2023-05-03T14:30:55.368Z,1.00
2023-05-03T14:33:23.297Z,0.88
2023-05-03T14:35:51.580Z,0.70
2023-05-03T14:38:19.493Z,0.82
2023-05-03T14:40:48.097Z,0.70
2023-05-03T14:43:16.197Z,0.82
2023-05-03T14:45:45.776Z,0.75
2023-05-03T14:48:13.806Z,0.77
2023-05-03T14:50:42.566Z,0.85
2023-05-03T14:53:10.507Z,1.00
2023-05-03T14:55:38.726Z,1.20
2023-05-03T14:58:07.528Z,1.38
2023-05-03T15:00:42.601Z,0.73
2023-05-03T15:03:12.556Z,1.00
2023-05-03T15:05:46.717Z,0.95
2023-05-03T15:08:17.004Z,0.90
2023-05-03T15:10:45.962Z,1.00
2023-05-03T15:13:16.641Z,0.60
2023-05-03T15:15:46.121Z,1.40
2023-05-03T15:18:15.908Z,1.50
2023-05-03T15:20:43.815Z,1.70
2023-05-03T15:23:11.980Z,1.58
2023-05-03T15:25:40.114Z,1.73
2023-05-03T15:28:08.569Z,1.63
2023-05-03T15:30:36.510Z,1.38
2023-05-03T15:33:05.096Z,0.93
2023-05-03T15:35:33.095Z,2.10
2023-05-03T15:38:01.615Z,1.42
2023-05-03T15:40:29.930Z,1.30
2023-05-03T15:42:58.409Z,2.15
2023-05-03T15:45:28.428Z,1.50
2023-05-03T15:47:57.285Z,1.40
2023-05-03T15:50:25.388Z,1.42
2023-05-03T15:52:53.665Z,1.00
2023-05-03T15:55:21.509Z,1.13
2023-05-03T15:57:52.334Z,1.13
2023-05-03T16:00:23.289Z,1.58
2023-05-03T16:02:52.159Z,1.17
2023-05-03T16:05:20.418Z,1.55
2023-05-03T16:07:49.602Z,1.20
2023-05-03T16:10:17.877Z,1.27
2023-05-03T16:12:46.517Z,1.50
2023-05-03T16:15:14.296Z,1.45
2023-05-03T16:17:42.535Z,1.45
2023-05-03T16:20:11.741Z,1.60
2023-05-03T16:22:39.978Z,1.50
2023-05-03T16:25:11.301Z,1.48
2023-05-03T16:27:42.688Z,1.20
2023-05-03T16:30:11.187Z,1.00
2023-05-03T16:32:40.376Z,1.48
2023-05-03T16:35:08.528Z,1.02
2023-05-03T16:37:37.771Z,1.00
2023-05-03T16:40:10.519Z,0.80
2023-05-03T16:42:39.566Z,1.10
2023-05-03T16:45:10.731Z,0.90
2023-05-03T16:47:40.088Z,0.82
2023-05-03T16:50:09.092Z,0.98
2023-05-03T16:52:42.680Z,3.45
2023-05-03T16:55:11.632Z,1.70
2023-05-03T16:57:42.740Z,0.98
2023-05-03T17:00:12.648Z,0.95
2023-05-03T17:02:41.391Z,1.10
2023-05-03T17:05:10.634Z,1.00
2023-05-03T17:07:41.057Z,0.77
2023-05-03T17:10:09.728Z,0.70
2023-05-03T17:12:38.057Z,0.73
2023-05-03T17:15:06.565Z,0.80
2023-05-03T17:17:34.846Z,1.20
2023-05-03T17:20:02.939Z,0.80
2023-05-03T17:22:31.617Z,1.00
2023-05-03T17:24:59.756Z,1.45
2023-05-03T17:27:28.157Z,0.93
2023-05-03T17:29:57.770Z,0.90
2023-05-03T17:32:26.041Z,1.00
2023-05-03T17:34:53.935Z,0.90
2023-05-03T17:37:24.017Z,1.15
2023-05-03T17:39:51.887Z,0.93
2023-05-03T17:42:20.226Z,1.27
2023-05-03T17:44:52.224Z,1.63
2023-05-03T17:47:21.316Z,1.98
2023-05-03T17:49:49.127Z,1.90
2023-05-03T17:52:17.624Z,1.70
2023-05-03T17:54:46.380Z,2.35
2023-05-03T17:57:14.688Z,1.65
2023-05-03T17:59:42.539Z,1.75
2023-05-03T18:02:11.016Z,1.42
2023-05-03T18:04:38.888Z,1.40
2023-05-03T18:07:06.984Z,1.45
2023-05-03T18:09:34.841Z,1.80
2023-05-03T18:12:04.379Z,1.48
2023-05-03T18:14:35.457Z,1.23
2023-05-03T18:17:03.673Z,1.13
2023-05-03T18:19:32.643Z,1.20
2023-05-03T18:22:00.739Z,1.83
2023-05-03T18:24:28.619Z,1.10
2023-05-03T18:26:57.273Z,1.20
2023-05-03T18:29:25.931Z,1.08
2023-05-03T18:31:54.964Z,1.00
2023-05-03T18:34:23.020Z,0.68
2023-05-03T18:36:51.923Z,0.90
2023-05-03T18:39:20.339Z,1.20
2023-05-03T18:41:50.796Z,1.30
2023-05-03T18:44:19.678Z,1.30
2023-05-03T18:46:48.989Z,1.13
2023-05-03T18:49:18.639Z,1.20
2023-05-03T18:51:47.557Z,1.48
2023-05-03T18:54:16.397Z,2.25
2023-05-03T18:56:45.918Z,1.55
2023-05-03T18:59:14.678Z,2.03
2023-05-03T19:01:43.657Z,1.77
2023-05-03T19:04:14.683Z,1.52
2023-05-03T19:06:44.382Z,1.60
2023-05-03T19:09:13.734Z,2.22
2023-05-03T19:11:44.916Z,1.70
2023-05-03T19:14:13.394Z,1.67
2023-05-03T19:16:43.241Z,1.70
2023-05-03T19:19:12.955Z,1.58
2023-05-03T19:21:43.784Z,1.98
2023-05-03T19:24:14.980Z,1.70
2023-05-03T19:26:44.351Z,1.42
2023-05-03T19:29:13.672Z,2.17
2023-05-03T19:31:43.088Z,1.67
2023-05-03T19:34:12.645Z,1.85
2023-05-03T19:36:42.901Z,2.45
2023-05-03T19:39:12.606Z,3.53
2023-05-03T19:41:42.417Z,4.07
2023-05-03T19:44:12.676Z,4.13
2023-05-03T19:46:42.155Z,4.38
2023-05-03T19:49:11.398Z,4.32
2023-05-03T19:51:40.106Z,5.40
2023-05-03T19:54:08.138Z,5.57
2023-05-03T19:56:36.466Z,7.22
2023-05-03T19:59:04.352Z,7.05
2023-05-03T20:01:32.862Z,5.78
2023-05-03T20:04:01.112Z,6.78
2023-05-03T20:06:29.567Z,7.40
2023-05-03T20:08:57.896Z,7.60
2023-05-03T20:11:26.278Z,7.97
2023-05-03T20:13:54.111Z,8.13
2023-05-03T20:16:22.339Z,7.60
2023-05-03T20:18:50.256Z,5.75
2023-05-03T20:21:18.459Z,3.38
2023-05-03T20:23:48.957Z,3.40
2023-05-03T20:26:19.328Z,2.95
2023-05-03T20:28:47.544Z,2.28
2023-05-03T20:31:16.292Z,2.28
2023-05-03T20:33:44.377Z,2.38
2023-05-03T20:36:14.596Z,2.00
2023-05-03T20:38:42.862Z,1.63
2023-05-03T20:41:11.068Z,1.48
2023-05-03T20:43:39.151Z,1.20
2023-05-03T20:46:07.618Z,1.48
2023-05-03T20:48:36.225Z,1.50
2023-05-03T20:51:08.536Z,1.50
2023-05-03T20:53:37.561Z,1.45
2023-05-03T20:56:08.213Z,2.10
2023-05-03T20:58:36.064Z,2.58
2023-05-03T21:01:05.539Z,1.60
2023-05-03T21:03:33.798Z,1.45
2023-05-03T21:06:02.493Z,1.45
2023-05-03T21:08:30.507Z,1.48
2023-05-03T21:10:58.777Z,1.73
2023-05-03T21:13:26.660Z,1.92
2023-05-03T21:15:55.447Z,1.65
2023-05-03T21:18:24.982Z,1.60
2023-05-03T21:20:54.438Z,2.30
2023-05-03T21:23:22.475Z,1.65
2023-05-03T21:25:52.027Z,1.35
2023-05-03T21:28:21.014Z,4.07
2023-05-03T21:30:49.245Z,1.60
2023-05-03T21:33:17.126Z,1.08
2023-05-03T21:35:45.490Z,1.40
2023-05-03T21:38:13.412Z,1.70
2023-05-03T21:40:41.747Z,2.35
2023-05-03T21:43:10.095Z,2.10
2023-05-03T21:45:42.987Z,2.40
2023-05-03T21:48:10.944Z,2.17
2023-05-03T21:50:39.871Z,2.50
2023-05-03T21:53:07.773Z,2.08
2023-05-03T21:55:35.886Z,2.20
2023-05-03T21:58:03.746Z,1.75
2023-05-03T22:00:31.986Z,1.50
2023-05-03T22:02:59.867Z,1.30
2023-05-03T22:05:28.586Z,1.92
2023-05-03T22:07:56.684Z,1.40
2023-05-03T22:10:25.065Z,1.65
2023-05-03T22:12:52.962Z,1.30
2023-05-03T22:15:21.672Z,1.95
2023-05-03T22:17:49.616Z,1.35
2023-05-03T22:20:17.941Z,1.88
2023-05-03T22:22:45.708Z,1.70
2023-05-03T22:25:23.249Z,1.70
2023-05-03T22:27:52.159Z,2.65
2023-05-03T22:30:21.175Z,6.68
2023-05-03T22:32:49.547Z,6.93
2023-05-03T22:35:17.824Z,6.03
2023-05-03T22:37:45.619Z,6.07
2023-05-03T22:40:14.232Z,5.40
2023-05-03T22:42:42.094Z,4.22
2023-05-03T22:45:10.667Z,3.10
2023-05-03T22:47:38.587Z,2.15
2023-05-03T22:50:07.805Z,1.75
2023-05-03T22:52:35.733Z,1.58
2023-05-03T22:55:04.561Z,1.98
2023-05-03T22:57:32.501Z,1.80
2023-05-03T23:00:01.137Z,1.70
2023-05-03T23:02:29.090Z,1.83
2023-05-03T23:04:57.319Z,2.13
2023-05-03T23:07:25.134Z,1.42
2023-05-03T23:10:03.061Z,1.70
2023-05-03T23:12:31.491Z,2.58
2023-05-03T23:14:59.926Z,1.30
2023-05-03T23:17:27.808Z,1.40
2023-05-03T23:19:56.022Z,1.20
2023-05-03T23:22:23.843Z,1.30
2023-05-03T23:24:52.290Z,1.40
2023-05-03T23:27:20.164Z,1.10
2023-05-03T23:29:49.216Z,1.58
2023-05-03T23:32:17.414Z,1.05
2023-05-03T23:34:46.074Z,2.15
2023-05-03T23:37:13.925Z,1.60
2023-05-03T23:39:46.183Z,1.35
2023-05-03T23:42:14.197Z,1.55
2023-05-03T23:44:54.587Z,1.40
2023-05-03T23:47:24.519Z,1.42
2023-05-03T23:49:52.860Z,3.55
2023-05-03T23:52:21.010Z,2.30
2023-05-03T23:54:49.199Z,2.17
2023-05-03T23:57:17.092Z,1.90
2023-05-03T23:59:45.786Z,2.00
